Boston, Massachusetts
Traffic Map
Current Weather Conditions
Boston, Massachusetts
Broken Clouds
Broken Clouds

Feels Like: 2°
Wind Chill: Ceiling: 3500
Heat Index: Visibility: 10mi
Dew Point: -2° Wind: 14mph
Humidity: 58% Direction: 300° (WNW)
Pressure: 29.76in Gusts: 28mph
Raw Report DataKBOS 181854Z 30012G24KT 10SM BKN035 06/M02 A2976 RMK AO2 SLP078 T00611017
Traffic Incident Summary
Active as of:
Severity:
Category:
InformationThere was an issue retrieving the traffic information for this location. Please try a different location or try again shortly.
Advertisements
Track Severe Weather on mobile